Time;durP1;ratioP1;P1;durP2;ratioP2;P2;SDS_P1;SDS_P2;PMS_P1;PMS_P2;Temp;Humidity;BMP_temperature;BMP_pressure;BME280_temperature;BME280_humidity;BME280_pressure;Samples;Min_cycle;Max_cycle;Signal;HPM_P1;HPM_P2
2022/06/04 00:00:36;;;;;;;7.00;5.00;;;;;;;10.53;73.66;99522.81;4954357;28;20078;-71
2022/06/04 00:03:02;;;;;;;7.43;5.20;;;;;;;10.53;73.37;99519.34;4953917;28;20512;-71
2022/06/04 00:05:30;;;;;;;7.30;4.88;;;;;;;10.45;74.43;99507.28;4971264;28;20047;-72
2022/06/04 00:07:57;;;;;;;5.95;5.15;;;;;;;10.46;73.98;99519.47;4953788;28;20097;-73
2022/06/04 00:16:00;;;;;;;7.47;4.90;;;;;;;10.39;73.61;99527.56;4972229;28;20038;-73
2022/06/04 00:18:25;;;;;;;7.28;5.45;;;;;;;10.38;74.23;99522.47;4975705;28;20162;-73
2022/06/04 00:20:52;;;;;;;7.30;5.68;;;;;;;10.37;74.24;99526.16;4976102;28;20133;-73
2022/06/04 00:23:19;;;;;;;6.82;4.95;;;;;;;10.33;74.50;99525.03;4976184;28;20043;-73
2022/06/04 00:25:49;;;;;;;6.95;4.32;;;;;;;10.31;73.81;99527.91;4975568;28;20049;-73
2022/06/04 00:28:15;;;;;;;;;;;;;;;10.29;74.07;99519.38;4976455;28;20045;-73
2022/06/04 00:30:42;;;;;;;6.97;4.93;;;;;;;10.26;73.61;99525.09;4958501;28;19926;-72
2022/06/04 00:33:08;;;;;;;8.13;5.50;;;;;;;10.26;74.28;99525.09;4958250;28;20129;-72
2022/06/04 00:35:35;;;;;;;9.82;4.90;;;;;;;10.24;73.87;99520.06;4958483;28;20130;-73
2022/06/04 00:38:01;;;;;;;8.70;4.75;;;;;;;10.24;73.65;99516.59;4975766;28;20042;-73
2022/06/04 00:40:41;;;;;;;6.97;4.57;;;;;;;10.24;74.23;99516.59;4958403;28;20059;-73
2022/06/04 00:43:06;;;;;;;8.10;4.95;;;;;;;10.22;73.95;99514.16;4975799;28;20049;-73
2022/06/04 00:45:32;;;;;;;7.03;5.05;;;;;;;10.21;73.66;99515.22;4958098;28;20047;-72
2022/06/04 00:47:59;;;;;;;6.68;5.03;;;;;;;10.19;73.67;99513.84;4958072;28;20046;-73
2022/06/04 00:50:25;;;;;;;7.63;4.57;;;;;;;10.19;74.80;99508.53;4976187;28;20051;-72
2022/06/04 00:52:52;;;;;;;9.18;4.93;;;;;;;10.17;74.12;99513.25;4975107;28;20074;-71
2022/06/04 00:55:18;;;;;;;7.43;4.90;;;;;;;10.27;74.59;99515.38;4941882;28;20094;-73
2022/06/04 00:58:08;;;;;;;6.65;4.28;;;;;;;10.34;73.77;99519.50;4958113;28;20528;-73
2022/06/04 01:00:35;;;;;;;;;;;;;;;10.50;73.20;99517.97;4975608;28;20051;-73
2022/06/04 01:03:10;;;;;;;8.77;4.32;;;;;;;10.65;72.40;99520.94;4975065;28;19925;-72
2022/06/04 01:06:01;;;;;;;6.90;4.22;;;;;;;10.84;72.30;99520.78;4941650;28;20150;-73
2022/06/04 01:08:53;;;;;;;7.63;4.88;;;;;;;11.07;70.57;99526.00;4958017;28;20054;-74
2022/06/04 01:12:10;;;;;;;7.00;4.50;;;;;;;11.28;69.94;99535.13;4942215;28;20142;-74
2022/06/04 01:14:47;;;;;;;4.63;3.72;;;;;;;11.59;68.60;99525.06;4974188;28;20070;-74
2022/06/04 01:17:21;;;;;;;7.15;3.60;;;;;;;11.92;67.71;99526.94;4974667;28;20516;-73
2022/06/04 01:19:57;;;;;;;10.00;4.22;;;;;;;12.26;66.31;99538.31;4975082;28;20055;-73
2022/06/04 01:22:57;;;;;;;4.60;3.92;;;;;;;12.56;64.92;99541.63;4974839;28;20050;-73
2022/06/04 01:25:48;;;;;;;4.73;3.83;;;;;;;12.88;64.13;99544.41;4957620;28;20051;-73
2022/06/04 01:28:16;;;;;;;4.28;3.88;;;;;;;13.26;62.87;99535.53;4974440;28;20137;-73
2022/06/04 01:30:52;;;;;;;6.43;3.67;;;;;;;13.61;61.32;99551.03;4925821;28;20565;-73
2022/06/04 01:33:22;;;;;;;5.53;3.50;;;;;;;13.93;60.54;99542.25;4957396;28;20432;-72
2022/06/04 01:35:58;;;;;;;5.00;3.80;;;;;;;14.17;59.10;99545.34;4954275;29;20083;-73
2022/06/04 01:38:32;;;;;;;4.65;3.85;;;;;;;14.57;58.37;99544.00;4972598;28;20134;-73
2022/06/04 01:41:03;;;;;;;5.28;3.50;;;;;;;14.80;57.26;99536.63;4956866;28;20082;-73
2022/06/04 01:43:38;;;;;;;6.65;3.38;;;;;;;15.14;56.05;99545.00;4957274;28;20053;-73
2022/06/04 01:46:10;;;;;;;5.25;3.83;;;;;;;15.50;55.16;99542.38;4941605;28;20051;-73
2022/06/04 01:48:38;;;;;;;5.38;3.28;;;;;;;15.94;53.80;99528.53;4974625;28;20065;-72
2022/06/04 01:51:05;;;;;;;4.13;3.38;;;;;;;16.42;52.30;99548.50;4956872;28;20043;-72
2022/06/04 01:53:34;;;;;;;6.15;3.67;;;;;;;16.80;51.27;99540.91;4974207;28;20055;-73
2022/06/04 01:56:28;;;;;;;15.43;4.15;;;;;;;17.21;50.13;99544.19;4956645;28;20049;-72
2022/06/04 01:59:23;;;;;;;9.88;3.60;;;;;;;17.62;48.97;99546.59;4970479;28;20047;-73
2022/06/04 02:01:52;;;;;;;4.45;3.50;;;;;;;17.98;47.92;99545.53;4951109;28;20102;-73
2022/06/04 02:04:23;;;;;;;5.55;3.60;;;;;;;18.14;47.61;99550.44;4940899;28;20053;-72
2022/06/04 02:09:47;;;;;;;3.58;3.28;;;;;;;18.44;46.39;99555.78;4959700;28;20070;-73
2022/06/04 02:12:13;;;;;;;7.18;3.58;;;;;;;18.83;46.02;99551.06;4956767;28;20043;-73
2022/06/04 02:14:40;;;;;;;4.95;3.25;;;;;;;19.26;45.01;99555.59;4956609;28;20099;-72
2022/06/04 02:17:14;;;;;;;6.60;3.50;;;;;;;19.53;44.23;99549.56;4973918;28;20037;-72
2022/06/04 02:19:41;;;;;;;3.92;3.15;;;;;;;19.67;43.63;99555.00;4974281;28;20060;-72
2022/06/04 02:22:06;;;;;;;6.07;3.10;;;;;;;19.85;43.10;99556.06;4973590;28;20416;-72
2022/06/04 02:24:32;;;;;;;7.90;3.60;;;;;;;20.14;42.44;99558.53;4956260;28;20038;-71
2022/06/04 02:26:58;;;;;;;4.50;3.50;;;;;;;20.41;41.76;99555.88;4956187;28;20050;-71
2022/06/04 02:29:23;;;;;;;5.35;3.42;;;;;;;20.51;41.20;99554.09;4940466;28;20043;-71
2022/06/04 02:31:59;;;;;;;5.75;3.38;;;;;;;20.60;41.27;99563.09;4973645;28;20046;-72
2022/06/04 02:34:35;;;;;;;6.18;3.20;;;;;;;20.64;41.21;99561.41;4956488;28;20386;-71
2022/06/04 02:37:05;;;;;;;8.38;3.55;;;;;;;20.92;40.64;99564.88;4956478;28;20047;-71
2022/06/04 02:39:37;;;;;;;4.28;3.13;;;;;;;21.17;39.88;99560.03;4973347;28;20047;-71
2022/06/04 02:42:12;;;;;;;7.45;3.50;;;;;;;21.45;39.38;99558.09;4955395;28;20464;-73
2022/06/04 02:44:53;;;;;;;4.80;3.05;;;;;;;21.66;39.12;99561.91;4956280;28;20043;-72
2022/06/04 02:47:23;;;;;;;6.38;3.45;;;;;;;21.72;38.65;99568.75;4955596;28;20489;-72
2022/06/04 02:49:58;;;;;;;8.57;3.33;;;;;;;21.91;38.29;99568.59;4973462;28;20046;-72
2022/06/04 02:52:24;;;;;;;5.75;3.40;;;;;;;21.90;38.66;99564.28;4973332;28;20098;-71
2022/06/04 02:54:55;;;;;;;4.28;3.20;;;;;;;22.02;38.25;99563.72;4973440;28;20097;-72
2022/06/04 02:57:21;;;;;;;6.32;3.17;;;;;;;22.09;37.84;99572.19;4956052;28;20121;-72
2022/06/04 02:59:48;;;;;;;6.22;3.10;;;;;;;22.28;37.71;99573.88;4956026;28;20097;-73
2022/06/04 03:02:16;;;;;;;6.68;3.95;;;;;;;22.41;37.43;99575.69;4955637;28;20513;-72
2022/06/04 03:04:49;;;;;;;5.38;3.63;;;;;;;22.47;37.13;99571.72;4955236;28;20047;-71
2022/06/04 03:07:16;;;;;;;7.50;2.97;;;;;;;22.59;37.10;99576.53;4940087;28;20121;-71
2022/06/04 03:09:44;;;;;;;6.50;3.10;;;;;;;22.58;36.82;99570.34;4956373;28;20047;-72
2022/06/04 03:12:11;;;;;;;8.40;3.10;;;;;;;22.56;37.09;99571.75;4972883;28;20103;-72
2022/06/04 03:14:37;;;;;;;5.95;3.20;;;;;;;22.55;37.32;99576.38;4972486;28;20094;-73
2022/06/04 03:17:09;;;;;;;5.70;3.20;;;;;;;22.67;37.06;99589.28;4972866;28;20146;-73
2022/06/04 03:19:34;;;;;;;7.70;3.33;;;;;;;22.76;37.19;99578.50;4955882;28;20050;-72
2022/06/04 03:22:00;;;;;;;4.35;3.03;;;;;;;22.72;37.22;99578.34;4972892;28;20443;-72
2022/06/04 03:24:26;;;;;;;5.40;3.30;;;;;;;22.86;37.38;99580.94;4972220;28;20504;-72
2022/06/04 03:26:52;;;;;;;6.05;2.97;;;;;;;22.74;37.14;99595.06;4955148;28;20046;-71
2022/06/04 03:29:19;;;;;;;7.18;3.15;;;;;;;22.86;37.25;99586.34;4955587;28;20101;-72
2022/06/04 03:31:45;;;;;;;3.88;3.17;;;;;;;22.77;37.11;99586.31;4939362;28;20444;-72
2022/06/04 03:34:11;;;;;;;5.15;3.15;;;;;;;22.74;37.42;99584.25;4955124;28;20038;-73
2022/06/04 03:36:37;;;;;;;7.57;3.00;;;;;;;22.88;37.57;99592.22;4972286;28;20039;-71
2022/06/04 03:39:04;;;;;;;5.43;2.88;;;;;;;23.00;37.27;99589.75;4955210;28;20105;-71
2022/06/04 03:41:30;;;;;;;4.07;3.00;;;;;;;23.15;37.39;99583.09;4972571;28;20500;-72
2022/06/04 03:43:56;;;;;;;7.50;3.58;;;;;;;23.10;36.97;99578.63;4954896;28;20100;-73
2022/06/04 03:46:24;;;;;;;6.38;3.10;;;;;;;23.07;37.32;99589.28;4923271;28;20181;-73
2022/06/04 03:48:51;;;;;;;6.00;2.97;;;;;;;23.22;36.83;99583.41;4972580;28;20169;-71
2022/06/04 03:51:17;;;;;;;3.17;2.47;;;;;;;23.12;36.74;99587.22;4954895;28;20058;-70
2022/06/04 03:53:42;;;;;;;5.32;2.75;;;;;;;22.81;36.94;99589.19;4972454;28;20051;-70
2022/06/04 03:56:08;;;;;;;3.47;2.60;;;;;;;22.88;37.46;99587.63;4972722;28;20054;-71
2022/06/04 03:58:34;;;;;;;3.00;2.70;;;;;;;22.75;37.79;99588.53;4972105;28;20492;-71
2022/06/04 04:01:00;;;;;;;6.22;2.90;;;;;;;22.68;37.94;99589.00;4939043;28;20047;-71
2022/06/04 04:03:26;;;;;;;4.03;2.60;;;;;;;22.54;38.46;99588.28;4971766;28;20070;-71
2022/06/04 04:05:53;;;;;;;5.18;2.60;;;;;;;22.67;38.23;99589.28;4955377;28;20109;-71
2022/06/04 04:08:23;;;;;;;8.15;3.08;;;;;;;22.82;38.48;99582.66;4954821;28;20475;-71
2022/06/04 04:10:49;;;;;;;3.88;2.50;;;;;;;22.92;37.60;99581.59;4972389;28;20089;-71
2022/06/04 04:13:16;;;;;;;5.68;2.83;;;;;;;22.83;38.63;99589.66;4970916;28;20061;-71
2022/06/04 04:15:42;;;;;;;6.88;2.60;;;;;;;22.90;38.03;99590.78;4954919;28;20054;-70
2022/06/04 04:18:08;;;;;;;3.75;2.70;;;;;;;23.12;37.67;99584.50;4971877;28;20051;-72
2022/06/04 04:20:37;;;;;;;3.67;2.60;;;;;;;23.33;37.32;99592.03;4971698;28;20061;-71
2022/06/04 04:23:04;;;;;;;9.00;2.85;;;;;;;23.39;36.93;99592.66;4954532;28;20043;-73
2022/06/04 04:25:33;;;;;;;3.90;2.50;;;;;;;23.38;36.98;99585.63;4936244;29;20062;-73
2022/06/04 04:28:00;;;;;;;5.45;2.80;;;;;;;23.35;37.44;99595.19;4948297;28;20484;-72
2022/06/04 04:30:28;;;;;;;2.95;2.65;;;;;;;23.41;37.28;99591.19;4972111;28;20091;-72
2022/06/04 04:32:54;;;;;;;3.35;2.70;;;;;;;23.51;36.48;99587.41;4971782;28;20046;-72
2022/06/04 04:35:23;;;;;;;5.82;2.40;;;;;;;23.50;36.44;99583.91;4954759;28;20089;-72
2022/06/04 04:37:49;;;;;;;9.45;2.75;;;;;;;23.62;37.06;99588.69;4972003;28;20043;-72
2022/06/04 04:40:17;;;;;;;2.67;2.20;;;;;;;23.73;36.62;99586.44;4971997;28;20452;-73
2022/06/04 04:42:43;;;;;;;3.53;2.47;;;;;;;23.70;37.10;99585.19;4971431;28;20038;-74
2022/06/04 04:45:10;;;;;;;2.65;2.42;;;;;;;23.38;37.79;99583.72;4938115;28;20042;-73
2022/06/04 04:47:40;;;;;;;3.00;2.45;;;;;;;23.52;37.22;99583.56;4923401;28;20050;-72
2022/06/04 04:50:12;;;;;;;6.97;2.55;;;;;;;23.64;37.75;99588.34;4972186;28;20053;-72
2022/06/04 04:52:38;;;;;;;5.35;2.30;;;;;;;23.62;37.78;99590.56;4953749;28;20034;-73
2022/06/04 04:55:04;;;;;;;7.30;2.92;;;;;;;23.79;37.17;99582.47;4971829;28;20050;-74
2022/06/04 04:57:29;;;;;;;5.32;2.75;;;;;;;23.87;36.72;99584.38;4954689;28;20042;-76
2022/06/04 04:59:55;;;;;;;6.05;2.72;;;;;;;23.88;37.03;99579.75;4937737;28;20053;-74
2022/06/04 05:02:21;;;;;;;5.50;2.90;;;;;;;23.90;37.64;99580.22;4970775;28;20042;-73
2022/06/04 05:04:47;;;;;;;4.95;2.70;;;;;;;23.80;37.41;99584.88;4974975;28;20125;-73
2022/06/04 05:07:12;;;;;;;4.90;2.70;;;;;;;23.56;37.72;99584.53;4974801;28;20129;-73
2022/06/04 05:09:39;;;;;;;5.72;2.83;;;;;;;22.88;39.17;99582.22;4958264;28;20564;-73
2022/06/04 05:12:08;;;;;;;3.78;2.83;;;;;;;22.64;39.62;99585.31;4974905;28;20467;-72
2022/06/04 05:14:37;;;;;;;3.90;2.60;;;;;;;22.49;39.54;99590.34;4954497;29;20055;-73
2022/06/04 05:17:04;;;;;;;4.07;2.63;;;;;;;22.41;39.83;99584.59;4955640;28;20473;-73
2022/06/04 05:19:30;;;;;;;10.45;2.92;;;;;;;22.12;40.72;99589.63;4956097;28;20054;-73
2022/06/04 05:21:56;;;;;;;13.82;3.10;;;;;;;22.04;40.67;99593.09;4954073;29;20509;-73
2022/06/04 05:24:23;;;;;;;5.13;2.85;;;;;;;21.90;41.17;99595.88;4938582;29;20039;-72
2022/06/04 05:26:50;;;;;;;7.25;2.80;;;;;;;21.70;41.22;99592.53;4954366;29;20517;-71
2022/06/04 05:29:15;;;;;;;4.75;2.80;;;;;;;21.59;41.95;99580.41;4953916;28;20106;-72
2022/06/04 05:31:41;;;;;;;4.55;2.63;;;;;;;21.44;42.26;99584.28;4938350;29;20421;-72
2022/06/04 05:34:08;;;;;;;2.60;2.40;;;;;;;21.20;42.90;99586.38;4955953;28;20077;-72
2022/06/04 05:36:35;;;;;;;4.35;2.60;;;;;;;21.08;43.50;99592.28;4955186;28;20102;-72
2022/06/04 05:39:01;;;;;;;4.18;2.47;;;;;;;20.90;43.87;99572.47;4954976;28;20043;-72
2022/06/04 05:41:26;;;;;;;8.30;3.25;;;;;;;20.78;44.36;99583.75;4953760;29;20043;-71
2022/06/04 05:43:53;;;;;;;3.67;2.40;;;;;;;20.59;44.25;99588.44;4955422;28;20063;-72
2022/06/04 05:46:20;;;;;;;3.00;2.65;;;;;;;20.44;44.23;99584.09;4955162;28;20081;-73
2022/06/04 05:48:46;;;;;;;3.50;2.45;;;;;;;20.34;43.58;99585.09;4953979;28;20058;-72
2022/06/04 05:51:14;;;;;;;4.88;2.60;;;;;;;20.32;45.10;99589.16;4955751;28;20050;-73
2022/06/04 05:53:40;;;;;;;6.35;2.88;;;;;;;20.30;45.03;99581.41;4953713;28;20145;-73
2022/06/04 05:56:19;;;;;;;3.92;2.55;;;;;;;20.23;44.91;99577.50;4955151;28;20050;-73
2022/06/04 05:58:48;;;;;;;4.22;2.50;;;;;;;20.15;44.73;99585.16;4937651;29;20031;-71
2022/06/04 06:01:15;;;;;;;5.05;2.70;;;;;;;20.19;44.50;99578.09;4952751;28;20058;-72
2022/06/04 06:03:42;;;;;;;3.83;2.42;;;;;;;20.12;45.50;99579.59;4953602;28;20130;-72
2022/06/04 06:06:20;;;;;;;6.32;2.65;;;;;;;20.08;45.19;99578.56;4955158;28;20082;-72
2022/06/04 06:08:46;;;;;;;4.10;2.78;;;;;;;20.05;45.85;99576.47;4954986;28;20093;-72
2022/06/04 06:11:14;;;;;;;6.97;3.70;;;;;;;20.07;46.02;99579.66;4952727;29;20054;-72
2022/06/04 06:13:41;;;;;;;2.78;2.40;;;;;;;19.98;45.01;99582.22;4957050;28;20113;-72
2022/06/04 06:16:10;;;;;;;4.47;2.70;;;;;;;19.86;44.47;99577.31;4956528;28;20050;-73
2022/06/04 06:18:36;;;;;;;4.07;2.63;;;;;;;19.89;45.37;99574.03;4956438;28;20055;-73
2022/06/04 06:21:10;;;;;;;4.72;2.72;;;;;;;19.63;44.61;99578.97;4956100;28;20531;-73
2022/06/04 06:23:37;;;;;;;8.32;5.00;;;;;;;19.54;45.17;99569.97;4950394;28;20046;-73
2022/06/04 06:26:04;;;;;;;5.47;3.17;;;;;;;19.71;45.04;99577.56;4966426;28;20492;-73
2022/06/04 06:28:30;;;;;;;8.98;5.53;;;;;;;19.77;45.79;99570.22;4973858;28;20039;-71
2022/06/04 06:30:56;;;;;;;3.20;2.60;;;;;;;19.58;46.47;99570.97;4939907;28;20066;-73
2022/06/04 06:33:22;;;;;;;7.32;3.20;;;;;;;19.52;46.67;99572.94;4973856;28;20536;-73
2022/06/04 06:35:59;;;;;;;7.93;5.05;;;;;;;19.60;46.41;99574.19;4940817;28;20077;-72
2022/06/04 06:38:26;;;;;;;9.82;3.72;;;;;;;19.81;45.71;99566.63;4940132;28;20045;-72
2022/06/04 06:40:53;;;;;;;5.00;3.72;;;;;;;20.20;45.34;99563.53;4940361;28;20050;-71
2022/06/04 06:43:19;;;;;;;3.10;2.63;;;;;;;20.47;44.82;99561.97;4972571;28;20053;-69
2022/06/04 06:45:45;;;;;;;5.95;2.58;;;;;;;20.39;43.89;99562.66;4940049;28;20043;-72
2022/06/04 06:48:11;;;;;;;8.65;2.90;;;;;;;20.24;43.80;99573.72;4973189;28;20495;-71
2022/06/04 06:50:38;;;;;;;4.40;2.60;;;;;;;20.31;43.14;99577.59;4973484;28;20089;-71
2022/06/04 06:53:04;;;;;;;6.25;2.70;;;;;;;20.40;43.13;99575.81;4953411;28;20415;-69
2022/06/04 06:55:30;;;;;;;4.70;2.60;;;;;;;20.60;43.54;99571.19;4975432;28;20580;-69
2022/06/04 06:57:57;;;;;;;4.03;2.65;;;;;;;20.75;42.88;99567.38;4972859;28;20149;-71
2022/06/04 07:00:22;;;;;;;3.13;2.58;;;;;;;21.03;42.40;99574.34;4923513;28;20050;-73
2022/06/04 07:02:48;;;;;;;3.80;2.25;;;;;;;21.10;41.65;99572.03;4922725;28;20042;-72
2022/06/04 07:05:13;;;;;;;3.67;2.58;;;;;;;21.09;40.32;99570.44;4972844;28;20051;-71
2022/06/04 07:07:40;;;;;;;3.00;2.53;;;;;;;21.02;40.37;99569.25;4955187;28;20046;-69
2022/06/04 07:10:07;;;;;;;4.15;2.58;;;;;;;20.89;40.97;99562.78;4955962;28;20043;-70
2022/06/04 07:12:32;;;;;;;3.65;2.90;;;;;;;20.96;41.68;99562.38;4947851;28;20039;-72
2022/06/04 07:14:59;;;;;;;5.97;3.58;;;;;;;21.33;40.90;99559.41;4984894;28;20428;-70
2022/06/04 07:17:25;;;;;;;5.05;3.00;;;;;;;21.62;40.58;99566.31;4962499;28;20412;-72
2022/06/04 07:19:51;;;;;;;2.75;2.30;;;;;;;21.79;40.18;99565.63;4939650;28;20047;-71
2022/06/04 07:22:17;;;;;;;8.88;3.17;;;;;;;21.70;39.72;99565.56;4972340;28;20039;-74
2022/06/04 07:24:43;;;;;;;2.90;2.60;;;;;;;21.48;40.42;99560.97;4976271;28;20061;-69
2022/06/04 07:27:09;;;;;;;4.43;2.17;;;;;;;21.39;40.56;99560.09;4972247;28;20038;-71
2022/06/04 07:29:36;;;;;;;3.28;2.38;;;;;;;21.47;40.39;99561.25;4955761;28;20500;-72
2022/06/04 07:32:03;;;;;;;3.15;2.83;;;;;;;21.57;39.31;99560.25;4972607;28;20053;-71
2022/06/04 07:34:29;;;;;;;4.68;3.05;;;;;;;21.46;40.04;99556.97;4939421;28;20041;-71
2022/06/04 07:36:55;;;;;;;3.55;2.45;;;;;;;21.49;39.53;99559.06;4954462;28;20045;-71
2022/06/04 07:39:21;;;;;;;3.13;2.70;;;;;;;21.52;40.59;99556.53;4955436;28;20046;-71
2022/06/04 07:41:52;;;;;;;3.95;2.50;;;;;;;21.61;40.50;99556.63;4972348;28;20043;-71
2022/06/04 07:44:18;;;;;;;;;;;;;;;21.41;40.50;99557.88;4973372;28;20133;-72
2022/06/04 07:46:45;;;;;;;6.28;2.80;;;;;;;21.32;40.64;99547.03;4972152;28;20077;-71
2022/06/04 07:49:11;;;;;;;4.15;2.53;;;;;;;21.35;40.28;99555.59;4955423;28;20517;-72
2022/06/04 07:51:38;;;;;;;3.95;2.40;;;;;;;21.32;39.47;99551.59;4955233;28;20690;-72
2022/06/04 07:54:05;;;;;;;4.38;2.92;;;;;;;21.12;39.70;99552.03;4971179;28;20051;-71
2022/06/04 07:56:31;;;;;;;4.88;2.50;;;;;;;20.88;40.39;99550.41;4938971;28;20048;-71
2022/06/04 07:58:57;;;;;;;5.57;2.83;;;;;;;20.71;41.17;99548.34;4971964;28;20133;-73
2022/06/04 08:01:23;;;;;;;4.38;2.92;;;;;;;20.65;40.90;99546.84;4971516;28;20049;-73
2022/06/04 08:03:50;;;;;;;8.63;4.70;;;;;;;20.52;41.24;99545.72;4954278;28;20047;-72
2022/06/04 08:06:17;;;;;;;4.55;2.90;;;;;;;20.17;41.05;99531.03;4955042;28;20093;-74
2022/06/04 08:08:50;;;;;;;6.78;2.78;;;;;;;20.09;40.69;99540.59;4954043;28;20046;-72
2022/06/04 08:11:32;;;;;;;3.80;2.55;;;;;;;20.12;40.84;99539.22;4962044;28;20045;-70
2022/06/04 08:14:16;;;;;;;5.72;2.60;;;;;;;20.16;40.48;99543.69;4971370;28;20058;-69
2022/06/04 08:16:46;;;;;;;4.50;3.65;;;;;;;20.10;40.40;99544.09;4971861;28;20042;-74
2022/06/04 08:19:13;;;;;;;11.77;3.20;;;;;;;20.20;41.08;99535.81;4971908;28;20097;-72
2022/06/04 08:21:39;;;;;;;12.63;3.45;;;;;;;20.58;40.69;99544.53;4954858;28;20059;-74
2022/06/04 08:24:07;;;;;;;5.32;2.40;;;;;;;20.76;38.96;99544.72;4938711;28;20386;-72
2022/06/04 08:26:32;;;;;;;4.20;2.78;;;;;;;20.62;39.77;99550.94;4971906;28;20524;-71
2022/06/04 08:28:58;;;;;;;2.50;2.30;;;;;;;20.71;39.67;99544.84;4972046;28;20034;-72
2022/06/04 08:31:24;;;;;;;4.43;2.60;;;;;;;20.72;40.40;99532.97;4971954;28;20551;-72
2022/06/04 08:33:50;;;;;;;3.63;2.85;;;;;;;20.76;40.41;99542.03;4954592;28;20043;-70
2022/06/04 08:36:16;;;;;;;3.42;2.70;;;;;;;20.94;39.57;99541.13;4939171;28;20053;-69
2022/06/04 08:38:43;;;;;;;4.85;2.40;;;;;;;21.12;38.85;99539.41;4974105;28;20047;-71
2022/06/04 08:41:20;;;;;;;4.93;2.25;;;;;;;21.28;38.14;99534.44;4958384;28;20050;-71
2022/06/04 08:43:51;;;;;;;3.20;2.60;;;;;;;21.17;38.12;99536.56;4935921;28;20039;-72
2022/06/04 08:46:51;;;;;;;2.33;2.13;;;;;;;20.92;37.81;99524.47;4975095;28;20046;-73
2022/06/04 08:49:32;;;;;;;2.97;2.45;;;;;;;20.89;38.09;99527.75;4972500;28;20189;-71
2022/06/04 08:52:00;;;;;;;3.72;2.70;;;;;;;20.90;37.72;99523.16;4939164;29;20448;-67
2022/06/04 09:00:09;;;;;;;4.28;2.55;;;;;;;21.12;37.72;99508.91;4974428;28;20157;-73
2022/06/04 09:03:07;;;;;;;5.40;3.83;;;;;;;21.14;38.09;99509.44;4974052;28;20051;-71
2022/06/04 09:06:02;;;;;;;8.80;3.42;;;;;;;21.47;38.06;99505.44;4942001;28;20500;-70
2022/06/04 09:08:40;;;;;;;4.30;2.30;;;;;;;21.75;37.16;99508.78;4975350;28;20476;-70
2022/06/04 09:11:12;;;;;;;2.80;2.28;;;;;;;21.96;37.36;99509.06;4957979;28;20504;-71
2022/06/04 09:14:18;;;;;;;6.25;2.60;;;;;;;22.18;37.14;99502.84;4957756;28;20069;-70
2022/06/04 09:16:49;;;;;;;2.58;2.05;;;;;;;22.29;35.66;99499.84;4956921;28;20066;-70
2022/06/04 09:19:21;;;;;;;4.35;2.30;;;;;;;22.42;35.96;99499.75;4975451;28;20450;-71
2022/06/04 09:21:47;;;;;;;4.72;2.40;;;;;;;22.49;36.16;99499.28;4975087;28;20043;-70
2022/06/04 09:24:13;;;;;;;4.68;2.20;;;;;;;22.60;36.51;99499.81;4974850;28;20038;-72
2022/06/04 09:26:47;;;;;;;13.02;3.00;;;;;;;22.73;35.93;99490.75;4974664;28;20046;-71
2022/06/04 09:29:31;;;;;;;7.00;2.80;;;;;;;22.68;35.38;99493.63;4925663;28;20043;-71
2022/06/04 09:31:57;;;;;;;5.18;2.72;;;;;;;22.49;35.67;99499.28;4941507;28;20141;-72
2022/06/04 09:34:42;;;;;;;6.88;2.75;;;;;;;22.22;35.96;99486.81;4975224;28;20141;-70
2022/06/04 09:37:09;;;;;;;2.88;2.38;;;;;;;21.97;35.92;99493.66;4941337;28;20089;-71
2022/06/04 09:39:37;;;;;;;3.35;2.15;;;;;;;22.15;35.93;99489.94;4957481;28;20050;-71
2022/06/04 09:42:06;;;;;;;6.25;2.20;;;;;;;22.41;35.45;99481.97;4974463;28;20089;-72
2022/06/04 09:44:37;;;;;;;5.03;2.42;;;;;;;22.60;35.02;99483.59;4957224;28;20512;-71
2022/06/04 09:47:06;;;;;;;3.53;2.08;;;;;;;22.85;34.92;99482.03;4957551;28;20037;-71
2022/06/04 09:49:38;;;;;;;5.57;2.42;;;;;;;23.02;35.20;99484.78;4957345;28;20042;-72
2022/06/04 09:52:23;;;;;;;4.25;2.88;;;;;;;22.85;34.73;99490.97;4974680;28;20106;-71
2022/06/04 09:54:55;;;;;;;5.75;3.50;;;;;;;22.68;34.70;99488.22;4974315;28;20412;-71
2022/06/04 09:57:30;;;;;;;9.93;5.38;;;;;;;22.29;35.17;99489.06;4974363;28;20233;-71
2022/06/04 09:59:57;;;;;;;8.45;4.53;;;;;;;22.04;35.79;99490.53;4974228;28;20055;-71
2022/06/04 10:02:24;;;;;;;13.38;4.40;;;;;;;22.09;35.91;99493.06;4973948;28;20114;-70
2022/06/04 10:05:02;;;;;;;6.65;3.30;;;;;;;21.91;36.00;99500.28;4974064;28;20058;-71
2022/06/04 10:07:33;;;;;;;4.13;2.95;;;;;;;21.98;36.74;99492.56;4957312;28;20125;-70
2022/06/04 10:10:02;;;;;;;4.25;2.88;;;;;;;22.01;36.24;99502.75;4974310;28;20087;-71
2022/06/04 10:15:38;;;;;;;5.28;3.20;;;;;;;22.31;36.47;99500.34;4959460;28;20086;-72
2022/06/04 10:18:23;;;;;;;9.90;4.28;;;;;;;22.29;35.65;99494.47;4973628;28;20043;-71
2022/06/04 10:21:29;;;;;;;3.75;2.72;;;;;;;22.29;35.94;99494.47;4973792;28;20445;-70
2022/06/04 10:23:57;;;;;;;5.38;2.80;;;;;;;22.41;35.37;99490.06;4917042;29;20090;-71
2022/06/04 10:26:57;;;;;;;6.28;2.80;;;;;;;22.26;34.91;99495.09;4967368;28;20149;-70
2022/06/04 10:29:57;;;;;;;4.18;2.65;;;;;;;21.92;35.17;99485.72;4956706;28;20239;-71
2022/06/04 10:33:00;;;;;;;4.82;2.67;;;;;;;21.98;35.78;99489.88;4973940;28;20047;-70
2022/06/04 10:35:51;;;;;;;3.97;2.40;;;;;;;22.11;35.43;99488.97;4973847;28;20073;-72
2022/06/04 10:38:30;;;;;;;6.78;2.55;;;;;;;22.04;35.37;99490.53;4956399;28;20070;-71
2022/06/04 10:41:04;;;;;;;3.72;2.70;;;;;;;22.04;35.33;99491.31;4956035;28;20053;-72
2022/06/04 10:43:40;;;;;;;5.10;2.78;;;;;;;21.93;35.52;99490.00;4973433;28;20038;-71
2022/06/04 10:46:29;;;;;;;5.13;3.30;;;;;;;21.96;35.75;99489.38;4956613;28;20047;-71
2022/06/04 10:49:14;;;;;;;10.48;3.10;;;;;;;22.06;36.43;99480.19;4955795;28;20471;-73
2022/06/04 10:51:55;;;;;;;9.77;2.90;;;;;;;22.16;36.59;99480.72;4973651;28;20043;-70
2022/06/04 10:55:06;;;;;;;7.68;3.00;;;;;;;22.21;36.12;99486.03;4973930;28;20039;-70
2022/06/04 10:58:01;;;;;;;9.30;5.15;;;;;;;22.18;35.77;99480.47;4932274;29;20186;-71
2022/06/04 11:00:46;;;;;;;7.57;3.70;;;;;;;22.33;36.05;99487.34;4972891;28;20050;-70
2022/06/04 11:03:24;;;;;;;6.93;4.75;;;;;;;22.55;34.96;99484.53;4955382;28;20046;-70
2022/06/04 11:06:13;;;;;;;6.55;3.35;;;;;;;22.64;35.25;99474.53;4973207;28;20055;-70
2022/06/04 11:08:47;;;;;;;5.65;4.07;;;;;;;22.64;34.64;99484.53;4939436;28;20074;-71
2022/06/04 11:11:44;;;;;;;8.38;3.28;;;;;;;22.58;35.26;99475.00;4973381;28;20050;-71
2022/06/04 11:14:13;;;;;;;4.47;3.00;;;;;;;22.48;35.07;99473.41;4955828;28;20065;-72
2022/06/04 11:16:46;;;;;;;13.45;3.88;;;;;;;22.32;35.81;99480.34;4972099;28;20058;-71
2022/06/04 11:19:18;;;;;;;9.13;3.78;;;;;;;22.19;36.24;99484.75;4955782;28;20047;-71
2022/06/04 11:21:53;;;;;;;5.35;2.80;;;;;;;22.01;36.21;99481.16;4972742;28;20054;-72
2022/06/04 11:24:27;;;;;;;5.70;4.05;;;;;;;21.99;37.11;99486.06;4955581;28;20117;-71
2022/06/04 11:26:59;;;;;;;8.75;3.28;;;;;;;22.03;36.74;99473.53;4955082;28;20197;-71
2022/06/04 11:29:25;;;;;;;5.28;2.90;;;;;;;22.15;36.19;99473.75;4955567;28;20042;-71
2022/06/04 11:32:08;;;;;;;5.65;2.80;;;;;;;22.15;35.74;99468.34;4939518;28;20118;-71
2022/06/04 11:34:52;;;;;;;5.20;3.10;;;;;;;22.27;36.00;99473.19;4972684;28;20051;-72
2022/06/04 11:37:37;;;;;;;5.07;2.75;;;;;;;22.32;36.20;99473.03;4972730;28;20038;-72
2022/06/04 11:40:15;;;;;;;8.13;3.20;;;;;;;22.50;36.34;99473.06;4972617;28;20053;-71
2022/06/04 11:42:56;;;;;;;6.70;3.22;;;;;;;22.58;36.34;99467.69;4972226;28;20046;-72
2022/06/04 11:45:33;;;;;;;10.18;3.00;;;;;;;22.35;36.46;99472.41;4972881;28;20043;-72
2022/06/04 11:48:34;;;;;;;4.50;2.70;;;;;;;22.22;35.98;99457.13;4956377;28;20500;-72
2022/06/04 11:51:03;;;;;;;7.45;3.25;;;;;;;22.18;35.60;99459.66;4972484;28;20521;-72
2022/06/04 11:53:57;;;;;;;4.18;2.95;;;;;;;22.25;36.15;99450.31;4955153;28;20050;-71
2022/06/04 11:56:38;;;;;;;6.47;3.22;;;;;;;22.18;36.69;99456.16;4971723;28;20082;-72
2022/06/04 11:59:28;;;;;;;6.30;4.43;;;;;;;22.21;36.88;99458.25;4953356;28;20066;-71
2022/06/04 12:02:13;;;;;;;4.38;2.65;;;;;;;22.13;36.38;99451.66;4935695;29;20081;-71
2022/06/04 12:04:47;;;;;;;10.23;3.10;;;;;;;22.12;36.97;99444.69;4937790;29;20421;-72
2022/06/04 12:07:18;;;;;;;7.95;3.15;;;;;;;22.08;36.57;99445.59;4952936;28;20050;-71
2022/06/04 12:09:54;;;;;;;7.18;3.13;;;;;;;21.99;36.26;99434.78;4953455;29;20054;-72
2022/06/04 12:12:28;;;;;;;10.27;3.08;;;;;;;21.82;37.11;99426.59;4954794;28;20576;-71